This is the latest recevied weather packets stored in our database for station/object OK2ILA-1. If no packets are shown the sender has not sent any weather packets the latest 10 day(s).
| Time | Temp. | Humidity | Pressure | Rain* | Wind** | Luminosity | Snow |
|---|---|---|---|---|---|---|---|
| 1788464983 | 18.33° C | 100% | 1019.7 hPa | 0 mm | - | - | - |
| 1788463542 | 18.33° C | 100% | 1019.7 hPa | 0 mm | - | - | - |
| 1788449849 | 23.33° C | 100% | 1019.4 hPa | 0 mm | - | - | - |
| 1788449128 | 23.89° C | 100% | 1019.5 hPa | 0 mm | - | - | - |
| 1788448407 | 23.89° C | 100% | 1019.5 hPa | 0 mm | - | - | - |
| 1788447687 | 23.89° C | 100% | 1019.7 hPa | 0 mm | - | - | - |
| 1788445525 | 23.89° C | 100% | 1020 hPa | 0 mm | - | - | - |
| 1788443363 | 23.89° C | 100% | 1019.9 hPa | 0 mm | - | - | - |
| 1788441921 | 23.89° C | 100% | 1019.9 hPa | 0 mm | - | - | - |
| 1788441201 | 23.89° C | 100% | 1020 hPa | 0 mm | - | - | - |
| 1788439759 | 23.89° C | 100% | 1020.1 hPa | 0 mm | - | - | - |
| 1788438318 | 23.33° C | 100% | 1020.4 hPa | 0 mm | - | - | - |
| 1788437597 | 22.78° C | 100% | 1020.5 hPa | 0 mm | - | - | - |
| 1788436156 | 22.22° C | 100% | 1020.7 hPa | 0 mm | - | - | - |
| 1788433273 | 21.67° C | 100% | 1020.7 hPa | 0 mm | - | - | - |
| 1788431832 | 21.67° C | 100% | 1020.9 hPa | 0 mm | - | - | - |
| 1788431111 | 21.67° C | 100% | 1020.8 hPa | 0 mm | - | - | - |
| 1788430390 | 22.22° C | 100% | 1020.8 hPa | 0 mm | - | - | - |
| 1788429669 | 22.78° C | 100% | 1020.8 hPa | 0 mm | - | - | - |
| 1788428949 | 23.89° C | 100% | 1020.8 hPa | 0 mm | - | - | - |
| 1788428228 | 23.33° C | 100% | 1020.9 hPa | 0 mm | - | - | - |
| 1788427508 | 23.33° C | 100% | 1021.1 hPa | 0 mm | - | - | - |
| 1788426787 | 22.78° C | 100% | 1021.1 hPa | 0 mm | - | - | - |
| 1788426066 | 22.22° C | 100% | 1021.2 hPa | 0 mm | - | - | - |
| 1788424625 | 22.22° C | 100% | 1021.3 hPa | 0 mm | - | - | - |
* Rain latest hour (hover to see other rain measurements)
** Current wind speed in m/s (hover to see current wind gust speed)